Bookmark and Share
Track history (hours):
 

Blessing Sw

Last reported at 2014-Apr-14 23:34 UTC. Time now 2014-Apr-16 05:17 UTC.
Position N 55°27' E 019°01'.

Length 171 m; draft 5.7 m.

Type: Cargo ship. MMSI: 372085000.

NotesDate/timePositionNaut miles runAvg speedWind from/ knotsBaromVisibWave heightAir tempDewpointWater temp
2014-Apr-14 23:34N 55°27' E 019°01'1212.2
2014-Apr-14 22:33N 55°24' E 018°40'1212.3
2014-Apr-14 21:33N 55°21' E 018°19'14311.9
2014-Apr-14 09:34N 54°37' E 014°23'1212.5
2014-Apr-14 08:34N 54°40' E 014°02'1312.6
2014-Apr-14 07:34N 54°49' E 013°47'1312.6
2014-Apr-14 06:34N 54°58' E 013°32'1212.0
2014-Apr-14 05:33N 55°06' E 013°15'7911.3
2014-Apr-13 22:33N 56°15' E 012°10'2411.7
2014-Apr-13 20:29N 56°38' E 011°55'1212.6
2014-Apr-13 19:33N 56°49' E 011°48'1312.3
2014-Apr-13 18:31N 57°01' E 011°41'1512.9
2014-Apr-13 17:23N 57°15' E 011°31'1113.2
2014-Apr-13 16:33N 57°25' E 011°24'1212.2
2014-Apr-13 15:33N 57°33' E 011°08'1313.2
2014-Apr-13 14:33N 57°40' E 010°47'5 4.9
2014-Apr-13 13:31N 57°42' E 010°38'0 0.1
2014-Apr-13 12:31N 57°43' E 010°38'0 0.0
2014-Apr-13 10:10N 57°43' E 010°38'0 0.0
2014-Apr-13 09:28N 57°43' E 010°38'0 0.0
2014-Apr-13 08:31N 57°43' E 010°38'0 0.0
2014-Apr-13 05:31N 57°43' E 010°38'3 3.4
2014-Apr-13 04:33N 57°43' E 010°44'8 8.2
2014-Apr-13 03:33N 57°47' E 010°30'7612.2
2014-Apr-12 21:22N 57°15' E 008°22'6012.2
2014-Apr-12 16:27N 56°26' E 007°18'6512.5
2014-Apr-12 11:16N 55°30' E 006°21'1212.5
2014-Apr-12 10:18N 55°19' E 006°11'2212.4
2014-Apr-12 08:33N 54°59' E 005°55'2512.5
2014-Apr-12 06:33N 54°37' E 005°36'1212.7
2014-Apr-12 05:33N 54°26' E 005°25'3912.9
2014-Apr-12 02:30N 53°57' E 004°39'1212.6
2014-Apr-12 01:33N 53°49' E 004°25'4711.6
2014-Apr-11 21:30N 53°14' E 003°33'1311.0
2014-Apr-11 20:20N 53°02' E 003°24'1910.7
2014-Apr-11 18:33N 52°44' E 003°13'1010.6
2014-Apr-11 17:33N 52°33' E 003°12'1511.1
2014-Apr-11 16:11N 52°18' E 003°12'4311.9
2014-Apr-11 12:33N 51°43' E 002°31'1313.1
2014-Apr-11 11:33N 51°33' E 002°17'1313.1
2014-Apr-11 10:33N 51°23' E 002°03'1313.4
2014-Apr-11 09:33N 51°13' E 001°49'1313.5
2014-Apr-11 08:33N 51°02' E 001°36'2912.8
2014-Apr-11 06:17N 50°38' E 001°12'912.7
2014-Apr-11 05:33N 50°32' E 001°01'1512.6
2014-Apr-11 04:21N 50°26' E 000°39'1012.1
2014-Apr-11 03:33N 50°23' E 000°25'3911.3
2014-Apr-11 00:06N 50°11' W 000°34'610.6
2014-Apr-10 23:32N 50°10' W 000°43'1110.4
2014-Apr-10 22:32N 50°08' W 000°59'1010.7
2014-Apr-10 21:33N 50°05' W 001°15'  
2014-Apr-07 17:33N 38°36' W 009°49'1110.9
2014-Apr-07 16:33N 38°25' W 009°46'1110.9
2014-Apr-07 15:33N 38°14' W 009°43'1111.3
2014-Apr-07 14:33N 38°03' W 009°39'1111.2
2014-Apr-07 13:33N 37°52' W 009°37'1111.1
2014-Apr-07 12:33N 37°42' W 009°32'1111.3
2014-Apr-07 11:33N 37°31' W 009°30'1111.3
2014-Apr-07 10:33N 37°20' W 009°26'1211.5
2014-Apr-07 09:30N 37°08' W 009°23'1111.3
2014-Apr-07 08:33N 36°57' W 009°20'1110.7
2014-Apr-07 07:32N 36°48' W 009°13'1010.4
2014-Apr-07 06:33N 36°43' W 009°02'1111.1
2014-Apr-07 05:33N 36°39' W 008°49'1111.5
2014-Apr-07 04:33N 36°35' W 008°36'1211.6
2014-Apr-07 03:33N 36°31' W 008°22'1211.8
2014-Apr-07 02:33N 36°27' W 008°09'1211.6
2014-Apr-07 01:33N 36°23' W 007°55'11511.5
2014-Apr-06 15:33N 35°58' W 005°36'1110.8
2014-Apr-06 14:33N 36°00' W 005°23'1110.9
2014-Apr-06 13:33N 36°02' W 005°10'40011.0
2014-Apr-05 01:08N 38°01' E 002°49'  

Dump ship's entire track history

sailing weather and tide predictions

Blessing Sw — 3FIP7 — position and weather